sensor_id;sensor_type;location;lat;lon;timestamp;pressure;altitude;pressure_sealevel;temperature
19644;BMP180;9970;-36.854;174.870;2022-11-18T00:00:50;99833.00;;;19.70
19644;BMP180;9970;-36.854;174.870;2022-11-18T00:03:23;99839.00;;;19.70
19644;BMP180;9970;-36.854;174.870;2022-11-18T00:05:57;99838.00;;;19.80
19644;BMP180;9970;-36.854;174.870;2022-11-18T00:08:30;99841.00;;;19.80
19644;BMP180;9970;-36.854;174.870;2022-11-18T00:11:14;99838.00;;;19.70
19644;BMP180;9970;-36.854;174.870;2022-11-18T00:13:43;99831.00;;;19.70
19644;BMP180;9970;-36.854;174.870;2022-11-18T00:16:33;99828.00;;;19.70
19644;BMP180;9970;-36.854;174.870;2022-11-18T00:19:06;99827.00;;;19.70
19644;BMP180;9970;-36.854;174.870;2022-11-18T00:21:40;99818.00;;;19.70
19644;BMP180;9970;-36.854;174.870;2022-11-18T00:24:13;99818.00;;;19.70
19644;BMP180;9970;-36.854;174.870;2022-11-18T00:26:46;99818.00;;;19.60
19644;BMP180;9970;-36.854;174.870;2022-11-18T00:29:19;99824.00;;;19.60
19644;BMP180;9970;-36.854;174.870;2022-11-18T00:31:53;99819.00;;;19.50
19644;BMP180;9970;-36.854;174.870;2022-11-18T00:34:26;99810.00;;;19.50
19644;BMP180;9970;-36.854;174.870;2022-11-18T00:36:59;99810.00;;;19.50
19644;BMP180;9970;-36.854;174.870;2022-11-18T00:39:32;99793.00;;;19.40
19644;BMP180;9970;-36.854;174.870;2022-11-18T00:42:05;99786.00;;;19.40
19644;BMP180;9970;-36.854;174.870;2022-11-18T00:44:56;99786.00;;;19.40
19644;BMP180;9970;-36.854;174.870;2022-11-18T00:47:29;99764.00;;;19.40
19644;BMP180;9970;-36.854;174.870;2022-11-18T00:50:02;99766.00;;;19.40
19644;BMP180;9970;-36.854;174.870;2022-11-18T00:52:35;99765.00;;;19.30
19644;BMP180;9970;-36.854;174.870;2022-11-18T00:55:09;99767.00;;;19.30
19644;BMP180;9970;-36.854;174.870;2022-11-18T00:57:42;99763.00;;;19.30
19644;BMP180;9970;-36.854;174.870;2022-11-18T01:00:15;99752.00;;;19.30
19644;BMP180;9970;-36.854;174.870;2022-11-18T01:02:49;99768.00;;;19.30
19644;BMP180;9970;-36.854;174.870;2022-11-18T01:05:22;99765.00;;;19.30
19644;BMP180;9970;-36.854;174.870;2022-11-18T01:07:55;99763.00;;;19.20
19644;BMP180;9970;-36.854;174.870;2022-11-18T01:10:28;99757.00;;;19.10
19644;BMP180;9970;-36.854;174.870;2022-11-18T01:13:02;99757.00;;;19.00
19644;BMP180;9970;-36.854;174.870;2022-11-18T01:15:57;99773.00;;;19.00
19644;BMP180;9970;-36.854;174.870;2022-11-18T01:18:31;99769.00;;;18.90
19644;BMP180;9970;-36.854;174.870;2022-11-18T01:21:08;99779.00;;;18.80
19644;BMP180;9970;-36.854;174.870;2022-11-18T01:23:41;99771.00;;;18.70
19644;BMP180;9970;-36.854;174.870;2022-11-18T01:26:15;99791.00;;;18.70
19644;BMP180;9970;-36.854;174.870;2022-11-18T01:28:49;99776.00;;;18.50
19644;BMP180;9970;-36.854;174.870;2022-11-18T01:31:22;99777.00;;;18.40
19644;BMP180;9970;-36.854;174.870;2022-11-18T01:33:55;99758.00;;;18.40
19644;BMP180;9970;-36.854;174.870;2022-11-18T01:36:28;99763.00;;;18.40
19644;BMP180;9970;-36.854;174.870;2022-11-18T01:39:01;99749.00;;;18.40
19644;BMP180;9970;-36.854;174.870;2022-11-18T01:41:34;99733.00;;;18.40
19644;BMP180;9970;-36.854;174.870;2022-11-18T01:46:58;99709.00;;;18.40
19644;BMP180;9970;-36.854;174.870;2022-11-18T01:49:32;99693.00;;;18.40
19644;BMP180;9970;-36.854;174.870;2022-11-18T01:52:05;99686.00;;;18.40
19644;BMP180;9970;-36.854;174.870;2022-11-18T01:54:39;99687.00;;;18.40
19644;BMP180;9970;-36.854;174.870;2022-11-18T01:57:14;99674.00;;;18.50
19644;BMP180;9970;-36.854;174.870;2022-11-18T01:59:49;99675.00;;;18.50
19644;BMP180;9970;-36.854;174.870;2022-11-18T02:02:23;99674.00;;;18.50
19644;BMP180;9970;-36.854;174.870;2022-11-18T02:04:57;99661.00;;;18.50
19644;BMP180;9970;-36.854;174.870;2022-11-18T02:07:35;99651.00;;;18.50
19644;BMP180;9970;-36.854;174.870;2022-11-18T02:10:06;99664.00;;;18.60
19644;BMP180;9970;-36.854;174.870;2022-11-18T02:12:41;99651.00;;;18.60
19644;BMP180;9970;-36.854;174.870;2022-11-18T02:15:14;99658.00;;;18.60
19644;BMP180;9970;-36.854;174.870;2022-11-18T02:17:54;99660.00;;;18.60
19644;BMP180;9970;-36.854;174.870;2022-11-18T02:20:38;99658.00;;;18.60
19644;BMP180;9970;-36.854;174.870;2022-11-18T02:29:14;99644.00;;;18.60
19644;BMP180;9970;-36.854;174.870;2022-11-18T02:31:47;99636.00;;;18.60
19644;BMP180;9970;-36.854;174.870;2022-11-18T02:37:33;99617.00;;;18.60
19644;BMP180;9970;-36.854;174.870;2022-11-18T02:42:58;99617.00;;;18.60
19644;BMP180;9970;-36.854;174.870;2022-11-18T02:45:31;99607.00;;;18.70
19644;BMP180;9970;-36.854;174.870;2022-11-18T02:48:06;99604.00;;;18.70
19644;BMP180;9970;-36.854;174.870;2022-11-18T02:50:40;99607.00;;;18.70
19644;BMP180;9970;-36.854;174.870;2022-11-18T02:53:15;99597.00;;;18.70
19644;BMP180;9970;-36.854;174.870;2022-11-18T02:55:49;99608.00;;;18.70
19644;BMP180;9970;-36.854;174.870;2022-11-18T02:58:23;99606.00;;;18.70
19644;BMP180;9970;-36.854;174.870;2022-11-18T03:00:57;99614.00;;;18.70
19644;BMP180;9970;-36.854;174.870;2022-11-18T03:03:37;99605.00;;;18.80
19644;BMP180;9970;-36.854;174.870;2022-11-18T03:09:21;99602.00;;;18.80
19644;BMP180;9970;-36.854;174.870;2022-11-18T03:31:28;99588.00;;;18.90
19644;BMP180;9970;-36.854;174.870;2022-11-18T03:34:09;99590.00;;;18.90
19644;BMP180;9970;-36.854;174.870;2022-11-18T03:36:47;99589.00;;;19.00
19644;BMP180;9970;-36.854;174.870;2022-11-18T03:39:20;99586.00;;;19.00
19644;BMP180;9970;-36.854;174.870;2022-11-18T03:41:54;99583.00;;;19.10
19644;BMP180;9970;-36.854;174.870;2022-11-18T03:44:29;99596.00;;;19.10
19644;BMP180;9970;-36.854;174.870;2022-11-18T03:47:05;99586.00;;;19.10
19644;BMP180;9970;-36.854;174.870;2022-11-18T03:49:42;99589.00;;;19.20
19644;BMP180;9970;-36.854;174.870;2022-11-18T03:52:21;99588.00;;;19.20
19644;BMP180;9970;-36.854;174.870;2022-11-18T03:54:54;99587.00;;;19.20
19644;BMP180;9970;-36.854;174.870;2022-11-18T03:57:33;99590.00;;;19.20
19644;BMP180;9970;-36.854;174.870;2022-11-18T04:00:13;99594.00;;;19.20
19644;BMP180;9970;-36.854;174.870;2022-11-18T04:02:47;99577.00;;;19.20
19644;BMP180;9970;-36.854;174.870;2022-11-18T04:05:21;99588.00;;;19.20
19644;BMP180;9970;-36.854;174.870;2022-11-18T04:07:58;99588.00;;;19.20
19644;BMP180;9970;-36.854;174.870;2022-11-18T04:10:46;99589.00;;;19.30
19644;BMP180;9970;-36.854;174.870;2022-11-18T04:13:19;99584.00;;;19.30
19644;BMP180;9970;-36.854;174.870;2022-11-18T04:15:56;99589.00;;;19.30
19644;BMP180;9970;-36.854;174.870;2022-11-18T04:18:29;99586.00;;;19.30
19644;BMP180;9970;-36.854;174.870;2022-11-18T04:21:02;99586.00;;;19.20
19644;BMP180;9970;-36.854;174.870;2022-11-18T04:23:35;99578.00;;;19.20
19644;BMP180;9970;-36.854;174.870;2022-11-18T04:26:09;99573.00;;;19.20
19644;BMP180;9970;-36.854;174.870;2022-11-18T04:28:45;99589.00;;;19.20
19644;BMP180;9970;-36.854;174.870;2022-11-18T04:31:18;99622.00;;;19.10
19644;BMP180;9970;-36.854;174.870;2022-11-18T04:33:51;99637.00;;;19.10
19644;BMP180;9970;-36.854;174.870;2022-11-18T04:36:24;99647.00;;;19.00
19644;BMP180;9970;-36.854;174.870;2022-11-18T04:38:57;99642.00;;;18.80
19644;BMP180;9970;-36.854;174.870;2022-11-18T04:41:30;99628.00;;;18.60
19644;BMP180;9970;-36.854;174.870;2022-11-18T04:44:27;99637.00;;;18.40
19644;BMP180;9970;-36.854;174.870;2022-11-18T04:47:02;99632.00;;;18.30
19644;BMP180;9970;-36.854;174.870;2022-11-18T04:49:35;99622.00;;;18.20
19644;BMP180;9970;-36.854;174.870;2022-11-18T04:52:09;99633.00;;;18.20
19644;BMP180;9970;-36.854;174.870;2022-11-18T04:54:41;99634.00;;;18.10
19644;BMP180;9970;-36.854;174.870;2022-11-18T04:57:19;99621.00;;;18.10
19644;BMP180;9970;-36.854;174.870;2022-11-18T04:59:51;99617.00;;;18.10
19644;BMP180;9970;-36.854;174.870;2022-11-18T05:02:24;99617.00;;;18.10
19644;BMP180;9970;-36.854;174.870;2022-11-18T05:04:58;99617.00;;;18.10
19644;BMP180;9970;-36.854;174.870;2022-11-18T05:07:31;99619.00;;;18.10
19644;BMP180;9970;-36.854;174.870;2022-11-18T05:10:05;99614.00;;;18.10
19644;BMP180;9970;-36.854;174.870;2022-11-18T05:12:38;99608.00;;;18.10
19644;BMP180;9970;-36.854;174.870;2022-11-18T05:15:22;99613.00;;;18.10
19644;BMP180;9970;-36.854;174.870;2022-11-18T05:17:54;99617.00;;;18.10
19644;BMP180;9970;-36.854;174.870;2022-11-18T05:20:27;99623.00;;;18.10
19644;BMP180;9970;-36.854;174.870;2022-11-18T05:23:02;99610.00;;;18.20
19644;BMP180;9970;-36.854;174.870;2022-11-18T05:25:35;99619.00;;;18.20
19644;BMP180;9970;-36.854;174.870;2022-11-18T05:28:08;99620.00;;;18.20
19644;BMP180;9970;-36.854;174.870;2022-11-18T05:30:41;99613.00;;;18.20
19644;BMP180;9970;-36.854;174.870;2022-11-18T05:33:14;99622.00;;;18.20
19644;BMP180;9970;-36.854;174.870;2022-11-18T05:35:48;99621.00;;;18.30
19644;BMP180;9970;-36.854;174.870;2022-11-18T05:38:22;99633.00;;;18.30
19644;BMP180;9970;-36.854;174.870;2022-11-18T05:40:55;99637.00;;;18.30
19644;BMP180;9970;-36.854;174.870;2022-11-18T05:43:28;99647.00;;;18.30
19644;BMP180;9970;-36.854;174.870;2022-11-18T05:46:02;99640.00;;;18.30
19644;BMP180;9970;-36.854;174.870;2022-11-18T05:48:35;99641.00;;;18.30
19644;BMP180;9970;-36.854;174.870;2022-11-18T05:51:13;99644.00;;;18.30
19644;BMP180;9970;-36.854;174.870;2022-11-18T05:53:46;99638.00;;;18.30
19644;BMP180;9970;-36.854;174.870;2022-11-18T05:56:28;99644.00;;;18.30
19644;BMP180;9970;-36.854;174.870;2022-11-18T05:59:02;99640.00;;;18.30
19644;BMP180;9970;-36.854;174.870;2022-11-18T06:05:14;99651.00;;;18.30
19644;BMP180;9970;-36.854;174.870;2022-11-18T06:07:05;99647.00;;;18.30
19644;BMP180;9970;-36.854;174.870;2022-11-18T06:09:39;99649.00;;;18.30
19644;BMP180;9970;-36.854;174.870;2022-11-18T06:12:15;99636.00;;;18.30
19644;BMP180;9970;-36.854;174.870;2022-11-18T06:14:55;99640.00;;;18.30
19644;BMP180;9970;-36.854;174.870;2022-11-18T06:17:26;99639.00;;;18.30
19644;BMP180;9970;-36.854;174.870;2022-11-18T06:19:59;99645.00;;;18.30
19644;BMP180;9970;-36.854;174.870;2022-11-18T06:22:32;99648.00;;;18.30
19644;BMP180;9970;-36.854;174.870;2022-11-18T06:25:08;99650.00;;;18.30
19644;BMP180;9970;-36.854;174.870;2022-11-18T06:27:41;99651.00;;;18.30
19644;BMP180;9970;-36.854;174.870;2022-11-18T06:30:15;99647.00;;;18.30
19644;BMP180;9970;-36.854;174.870;2022-11-18T06:32:48;99653.00;;;18.30
19644;BMP180;9970;-36.854;174.870;2022-11-18T06:35:21;99656.00;;;18.40
19644;BMP180;9970;-36.854;174.870;2022-11-18T06:37:55;99661.00;;;18.40
19644;BMP180;9970;-36.854;174.870;2022-11-18T06:40:27;99667.00;;;18.40
19644;BMP180;9970;-36.854;174.870;2022-11-18T06:43:08;99669.00;;;18.40
19644;BMP180;9970;-36.854;174.870;2022-11-18T06:46:00;99665.00;;;18.40
19644;BMP180;9970;-36.854;174.870;2022-11-18T06:48:51;99674.00;;;18.40
19644;BMP180;9970;-36.854;174.870;2022-11-18T06:51:24;99678.00;;;18.40
19644;BMP180;9970;-36.854;174.870;2022-11-18T06:53:57;99674.00;;;18.40
19644;BMP180;9970;-36.854;174.870;2022-11-18T06:56:33;99678.00;;;18.50
19644;BMP180;9970;-36.854;174.870;2022-11-18T06:59:06;99677.00;;;18.50
19644;BMP180;9970;-36.854;174.870;2022-11-18T07:01:40;99681.00;;;18.50
19644;BMP180;9970;-36.854;174.870;2022-11-18T07:04:13;99680.00;;;18.50
19644;BMP180;9970;-36.854;174.870;2022-11-18T07:06:46;99682.00;;;18.50
19644;BMP180;9970;-36.854;174.870;2022-11-18T07:09:19;99697.00;;;18.50
19644;BMP180;9970;-36.854;174.870;2022-11-18T07:11:51;99692.00;;;18.50
19644;BMP180;9970;-36.854;174.870;2022-11-18T07:14:25;99699.00;;;18.40
19644;BMP180;9970;-36.854;174.870;2022-11-18T07:16:58;99704.00;;;18.40
19644;BMP180;9970;-36.854;174.870;2022-11-18T07:19:31;99711.00;;;18.40
19644;BMP180;9970;-36.854;174.870;2022-11-18T07:22:04;99713.00;;;18.40
19644;BMP180;9970;-36.854;174.870;2022-11-18T07:24:38;99712.00;;;18.40
19644;BMP180;9970;-36.854;174.870;2022-11-18T07:27:11;99716.00;;;18.40
19644;BMP180;9970;-36.854;174.870;2022-11-18T07:29:44;99721.00;;;18.40
19644;BMP180;9970;-36.854;174.870;2022-11-18T07:32:16;99719.00;;;18.40
19644;BMP180;9970;-36.854;174.870;2022-11-18T07:34:50;99716.00;;;18.30
19644;BMP180;9970;-36.854;174.870;2022-11-18T07:37:22;99728.00;;;18.30
19644;BMP180;9970;-36.854;174.870;2022-11-18T07:39:56;99727.00;;;18.30
19644;BMP180;9970;-36.854;174.870;2022-11-18T07:42:29;99726.00;;;18.30
19644;BMP180;9970;-36.854;174.870;2022-11-18T07:45:04;99726.00;;;18.30
19644;BMP180;9970;-36.854;174.870;2022-11-18T07:47:37;99723.00;;;18.20
19644;BMP180;9970;-36.854;174.870;2022-11-18T07:50:10;99723.00;;;18.20
19644;BMP180;9970;-36.854;174.870;2022-11-18T07:52:43;99723.00;;;18.10
19644;BMP180;9970;-36.854;174.870;2022-11-18T07:55:16;99725.00;;;18.10
19644;BMP180;9970;-36.854;174.870;2022-11-18T07:57:49;99737.00;;;18.10
19644;BMP180;9970;-36.854;174.870;2022-11-18T08:00:22;99724.00;;;18.10
19644;BMP180;9970;-36.854;174.870;2022-11-18T08:02:55;99728.00;;;18.10
19644;BMP180;9970;-36.854;174.870;2022-11-18T08:05:28;99739.00;;;18.10
19644;BMP180;9970;-36.854;174.870;2022-11-18T08:08:01;99743.00;;;18.10
19644;BMP180;9970;-36.854;174.870;2022-11-18T08:10:34;99735.00;;;18.10
19644;BMP180;9970;-36.854;174.870;2022-11-18T08:13:07;99735.00;;;18.10
19644;BMP180;9970;-36.854;174.870;2022-11-18T08:15:43;99748.00;;;18.10
19644;BMP180;9970;-36.854;174.870;2022-11-18T08:18:16;99755.00;;;18.10
19644;BMP180;9970;-36.854;174.870;2022-11-18T08:20:49;99754.00;;;18.10
19644;BMP180;9970;-36.854;174.870;2022-11-18T08:23:22;99758.00;;;18.10
19644;BMP180;9970;-36.854;174.870;2022-11-18T08:26:03;99765.00;;;18.10
19644;BMP180;9970;-36.854;174.870;2022-11-18T08:28:37;99754.00;;;18.10
19644;BMP180;9970;-36.854;174.870;2022-11-18T08:31:18;99765.00;;;18.10
19644;BMP180;9970;-36.854;174.870;2022-11-18T08:33:54;99768.00;;;18.00
19644;BMP180;9970;-36.854;174.870;2022-11-18T08:36:29;99774.00;;;18.00
19644;BMP180;9970;-36.854;174.870;2022-11-18T08:39:04;99777.00;;;18.00
19644;BMP180;9970;-36.854;174.870;2022-11-18T08:41:39;99779.00;;;18.00
19644;BMP180;9970;-36.854;174.870;2022-11-18T08:44:14;99776.00;;;18.00
19644;BMP180;9970;-36.854;174.870;2022-11-18T08:46:47;99781.00;;;18.00
19644;BMP180;9970;-36.854;174.870;2022-11-18T08:49:20;99789.00;;;18.00
19644;BMP180;9970;-36.854;174.870;2022-11-18T08:51:54;99790.00;;;18.00
19644;BMP180;9970;-36.854;174.870;2022-11-18T08:54:27;99803.00;;;18.00
19644;BMP180;9970;-36.854;174.870;2022-11-18T08:57:01;99808.00;;;18.00
19644;BMP180;9970;-36.854;174.870;2022-11-18T08:59:34;99819.00;;;18.00
19644;BMP180;9970;-36.854;174.870;2022-11-18T09:02:18;99811.00;;;18.00
19644;BMP180;9970;-36.854;174.870;2022-11-18T09:04:55;99806.00;;;18.00
19644;BMP180;9970;-36.854;174.870;2022-11-18T09:07:28;99810.00;;;18.00
19644;BMP180;9970;-36.854;174.870;2022-11-18T09:10:01;99820.00;;;18.00
19644;BMP180;9970;-36.854;174.870;2022-11-18T09:12:34;99822.00;;;18.00
19644;BMP180;9970;-36.854;174.870;2022-11-18T09:15:08;99835.00;;;18.00
19644;BMP180;9970;-36.854;174.870;2022-11-18T09:17:43;99826.00;;;18.00
19644;BMP180;9970;-36.854;174.870;2022-11-18T09:20:16;99835.00;;;18.00
19644;BMP180;9970;-36.854;174.870;2022-11-18T09:22:49;99847.00;;;18.00
19644;BMP180;9970;-36.854;174.870;2022-11-18T09:25:23;99838.00;;;18.00
19644;BMP180;9970;-36.854;174.870;2022-11-18T09:27:56;99846.00;;;18.00
19644;BMP180;9970;-36.854;174.870;2022-11-18T09:30:30;99839.00;;;18.00
19644;BMP180;9970;-36.854;174.870;2022-11-18T09:33:03;99841.00;;;18.00
19644;BMP180;9970;-36.854;174.870;2022-11-18T09:35:40;99842.00;;;17.90
19644;BMP180;9970;-36.854;174.870;2022-11-18T09:38:12;99835.00;;;17.90
19644;BMP180;9970;-36.854;174.870;2022-11-18T09:40:49;99849.00;;;17.90
19644;BMP180;9970;-36.854;174.870;2022-11-18T09:46:09;99846.00;;;17.90
19644;BMP180;9970;-36.854;174.870;2022-11-18T09:48:39;99850.00;;;17.90
19644;BMP180;9970;-36.854;174.870;2022-11-18T09:51:31;99860.00;;;17.90
19644;BMP180;9970;-36.854;174.870;2022-11-18T09:54:07;99857.00;;;17.90
19644;BMP180;9970;-36.854;174.870;2022-11-18T09:56:45;99851.00;;;17.90
19644;BMP180;9970;-36.854;174.870;2022-11-18T09:59:20;99855.00;;;17.90
19644;BMP180;9970;-36.854;174.870;2022-11-18T10:01:56;99864.00;;;17.90
19644;BMP180;9970;-36.854;174.870;2022-11-18T10:04:29;99867.00;;;17.90
19644;BMP180;9970;-36.854;174.870;2022-11-18T10:07:02;99863.00;;;17.90
19644;BMP180;9970;-36.854;174.870;2022-11-18T10:09:41;99858.00;;;17.90
19644;BMP180;9970;-36.854;174.870;2022-11-18T10:12:37;99862.00;;;17.90
19644;BMP180;9970;-36.854;174.870;2022-11-18T10:15:22;99859.00;;;17.90
19644;BMP180;9970;-36.854;174.870;2022-11-18T10:21:02;99862.00;;;17.80
19644;BMP180;9970;-36.854;174.870;2022-11-18T10:23:39;99866.00;;;17.80
19644;BMP180;9970;-36.854;174.870;2022-11-18T10:26:09;99852.00;;;17.80
19644;BMP180;9970;-36.854;174.870;2022-11-18T10:28:42;99850.00;;;17.80
19644;BMP180;9970;-36.854;174.870;2022-11-18T10:31:15;99860.00;;;17.80
19644;BMP180;9970;-36.854;174.870;2022-11-18T10:33:49;99856.00;;;17.80
19644;BMP180;9970;-36.854;174.870;2022-11-18T10:36:25;99854.00;;;17.80
19644;BMP180;9970;-36.854;174.870;2022-11-18T10:39:14;99857.00;;;17.80
19644;BMP180;9970;-36.854;174.870;2022-11-18T10:41:48;99861.00;;;17.70
19644;BMP180;9970;-36.854;174.870;2022-11-18T10:44:39;99858.00;;;17.80
19644;BMP180;9970;-36.854;174.870;2022-11-18T10:47:26;99855.00;;;17.80
19644;BMP180;9970;-36.854;174.870;2022-11-18T10:50:01;99848.00;;;17.70
19644;BMP180;9970;-36.854;174.870;2022-11-18T10:52:38;99863.00;;;17.80
19644;BMP180;9970;-36.854;174.870;2022-11-18T10:57:53;99857.00;;;17.80
19644;BMP180;9970;-36.854;174.870;2022-11-18T11:00:37;99865.00;;;17.80
19644;BMP180;9970;-36.854;174.870;2022-11-18T11:03:21;99861.00;;;17.80
19644;BMP180;9970;-36.854;174.870;2022-11-18T11:06:28;99861.00;;;17.80
19644;BMP180;9970;-36.854;174.870;2022-11-18T11:09:09;99866.00;;;17.70
19644;BMP180;9970;-36.854;174.870;2022-11-18T11:14:47;99858.00;;;17.70
19644;BMP180;9970;-36.854;174.870;2022-11-18T11:20:18;99845.00;;;17.70
19644;BMP180;9970;-36.854;174.870;2022-11-18T11:22:51;99834.00;;;17.70
19644;BMP180;9970;-36.854;174.870;2022-11-18T11:25:27;99842.00;;;17.70
19644;BMP180;9970;-36.854;174.870;2022-11-18T11:28:14;99839.00;;;17.80
19644;BMP180;9970;-36.854;174.870;2022-11-18T11:31:02;99836.00;;;17.70
19644;BMP180;9970;-36.854;174.870;2022-11-18T11:33:21;99840.00;;;17.70
19644;BMP180;9970;-36.854;174.870;2022-11-18T11:36:13;99840.00;;;17.70
19644;BMP180;9970;-36.854;174.870;2022-11-18T11:44:30;99838.00;;;17.70
19644;BMP180;9970;-36.854;174.870;2022-11-18T11:50:11;99831.00;;;17.60
19644;BMP180;9970;-36.854;174.870;2022-11-18T12:01:43;99844.00;;;17.60
19644;BMP180;9970;-36.854;174.870;2022-11-18T12:06:50;99849.00;;;17.60
19644;BMP180;9970;-36.854;174.870;2022-11-18T12:09:38;99853.00;;;17.60
19644;BMP180;9970;-36.854;174.870;2022-11-18T12:12:25;99854.00;;;17.60
19644;BMP180;9970;-36.854;174.870;2022-11-18T12:18:04;99854.00;;;17.60
19644;BMP180;9970;-36.854;174.870;2022-11-18T12:20:39;99844.00;;;17.50
19644;BMP180;9970;-36.854;174.870;2022-11-18T12:23:17;99851.00;;;17.50
19644;BMP180;9970;-36.854;174.870;2022-11-18T12:28:34;99847.00;;;17.60
19644;BMP180;9970;-36.854;174.870;2022-11-18T12:34:02;99842.00;;;17.50
19644;BMP180;9970;-36.854;174.870;2022-11-18T12:36:36;99844.00;;;17.50
19644;BMP180;9970;-36.854;174.870;2022-11-18T12:42:01;99850.00;;;17.50
19644;BMP180;9970;-36.854;174.870;2022-11-18T12:44:52;99846.00;;;17.50
19644;BMP180;9970;-36.854;174.870;2022-11-18T12:50:18;99845.00;;;17.50
19644;BMP180;9970;-36.854;174.870;2022-11-18T12:52:52;99851.00;;;17.60
19644;BMP180;9970;-36.854;174.870;2022-11-18T12:55:29;99850.00;;;17.60
19644;BMP180;9970;-36.854;174.870;2022-11-18T12:58:01;99862.00;;;17.60
19644;BMP180;9970;-36.854;174.870;2022-11-18T13:00:34;99856.00;;;17.60
19644;BMP180;9970;-36.854;174.870;2022-11-18T13:03:08;99864.00;;;17.60
19644;BMP180;9970;-36.854;174.870;2022-11-18T13:05:42;99863.00;;;17.60
19644;BMP180;9970;-36.854;174.870;2022-11-18T13:08:16;99853.00;;;17.50
19644;BMP180;9970;-36.854;174.870;2022-11-18T13:10:52;99858.00;;;17.50
19644;BMP180;9970;-36.854;174.870;2022-11-18T13:13:32;99858.00;;;17.50
19644;BMP180;9970;-36.854;174.870;2022-11-18T13:16:12;99856.00;;;17.50
19644;BMP180;9970;-36.854;174.870;2022-11-18T13:18:56;99866.00;;;17.40
19644;BMP180;9970;-36.854;174.870;2022-11-18T13:21:30;99851.00;;;17.40
19644;BMP180;9970;-36.854;174.870;2022-11-18T13:24:22;99852.00;;;17.40
19644;BMP180;9970;-36.854;174.870;2022-11-18T13:26:55;99852.00;;;17.40
19644;BMP180;9970;-36.854;174.870;2022-11-18T13:30:05;99856.00;;;17.40
19644;BMP180;9970;-36.854;174.870;2022-11-18T13:32:48;99849.00;;;17.30
19644;BMP180;9970;-36.854;174.870;2022-11-18T13:35:18;99856.00;;;17.30
19644;BMP180;9970;-36.854;174.870;2022-11-18T13:37:56;99850.00;;;17.30
19644;BMP180;9970;-36.854;174.870;2022-11-18T13:40:31;99847.00;;;17.30
19644;BMP180;9970;-36.854;174.870;2022-11-18T13:43:04;99841.00;;;17.30
19644;BMP180;9970;-36.854;174.870;2022-11-18T13:45:38;99847.00;;;17.20
19644;BMP180;9970;-36.854;174.870;2022-11-18T13:48:12;99846.00;;;17.30
19644;BMP180;9970;-36.854;174.870;2022-11-18T13:50:46;99840.00;;;17.20
19644;BMP180;9970;-36.854;174.870;2022-11-18T13:53:35;99840.00;;;17.20
19644;BMP180;9970;-36.854;174.870;2022-11-18T13:56:19;99844.00;;;17.20
19644;BMP180;9970;-36.854;174.870;2022-11-18T13:58:57;99834.00;;;17.20
19644;BMP180;9970;-36.854;174.870;2022-11-18T14:01:35;99844.00;;;17.10
19644;BMP180;9970;-36.854;174.870;2022-11-18T14:04:18;99848.00;;;17.10
19644;BMP180;9970;-36.854;174.870;2022-11-18T14:06:52;99847.00;;;17.10
19644;BMP180;9970;-36.854;174.870;2022-11-18T14:09:29;99844.00;;;17.10
19644;BMP180;9970;-36.854;174.870;2022-11-18T14:12:04;99840.00;;;17.10
19644;BMP180;9970;-36.854;174.870;2022-11-18T14:14:39;99857.00;;;17.10
19644;BMP180;9970;-36.854;174.870;2022-11-18T14:20:05;99842.00;;;17.10
19644;BMP180;9970;-36.854;174.870;2022-11-18T14:22:27;99841.00;;;17.10
19644;BMP180;9970;-36.854;174.870;2022-11-18T14:25:17;99846.00;;;17.10
19644;BMP180;9970;-36.854;174.870;2022-11-18T14:28:08;99832.00;;;17.10
19644;BMP180;9970;-36.854;174.870;2022-11-18T14:30:33;99842.00;;;17.10
19644;BMP180;9970;-36.854;174.870;2022-11-18T14:33:25;99835.00;;;17.00
19644;BMP180;9970;-36.854;174.870;2022-11-18T14:36:17;99834.00;;;17.00
19644;BMP180;9970;-36.854;174.870;2022-11-18T14:38:51;99834.00;;;17.00
19644;BMP180;9970;-36.854;174.870;2022-11-18T14:41:25;99842.00;;;17.00
19644;BMP180;9970;-36.854;174.870;2022-11-18T14:44:16;99838.00;;;17.00
19644;BMP180;9970;-36.854;174.870;2022-11-18T14:47:03;99837.00;;;17.00
19644;BMP180;9970;-36.854;174.870;2022-11-18T14:49:37;99844.00;;;17.00
19644;BMP180;9970;-36.854;174.870;2022-11-18T14:52:10;99848.00;;;17.00
19644;BMP180;9970;-36.854;174.870;2022-11-18T14:54:43;99837.00;;;17.00
19644;BMP180;9970;-36.854;174.870;2022-11-18T14:57:17;99839.00;;;17.00
19644;BMP180;9970;-36.854;174.870;2022-11-18T14:59:50;99845.00;;;17.00
19644;BMP180;9970;-36.854;174.870;2022-11-18T15:02:23;99845.00;;;17.00
19644;BMP180;9970;-36.854;174.870;2022-11-18T15:04:56;99839.00;;;17.00
19644;BMP180;9970;-36.854;174.870;2022-11-18T15:07:29;99847.00;;;17.00
19644;BMP180;9970;-36.854;174.870;2022-11-18T15:10:02;99851.00;;;17.00
19644;BMP180;9970;-36.854;174.870;2022-11-18T15:12:35;99842.00;;;17.00
19644;BMP180;9970;-36.854;174.870;2022-11-18T15:15:08;99839.00;;;17.00
19644;BMP180;9970;-36.854;174.870;2022-11-18T15:17:41;99839.00;;;16.90
19644;BMP180;9970;-36.854;174.870;2022-11-18T15:20:19;99826.00;;;16.90
19644;BMP180;9970;-36.854;174.870;2022-11-18T15:22:53;99835.00;;;16.90
19644;BMP180;9970;-36.854;174.870;2022-11-18T15:25:26;99836.00;;;16.90
19644;BMP180;9970;-36.854;174.870;2022-11-18T15:27:59;99838.00;;;16.90
19644;BMP180;9970;-36.854;174.870;2022-11-18T15:30:32;99837.00;;;16.90
19644;BMP180;9970;-36.854;174.870;2022-11-18T15:33:05;99847.00;;;16.90
19644;BMP180;9970;-36.854;174.870;2022-11-18T15:35:42;99840.00;;;16.80
19644;BMP180;9970;-36.854;174.870;2022-11-18T15:38:20;99844.00;;;16.80
19644;BMP180;9970;-36.854;174.870;2022-11-18T15:40:53;99844.00;;;16.80
19644;BMP180;9970;-36.854;174.870;2022-11-18T15:43:26;99847.00;;;16.80
19644;BMP180;9970;-36.854;174.870;2022-11-18T15:45:59;99843.00;;;16.80
19644;BMP180;9970;-36.854;174.870;2022-11-18T15:48:32;99845.00;;;16.80
19644;BMP180;9970;-36.854;174.870;2022-11-18T15:51:06;99847.00;;;16.80
19644;BMP180;9970;-36.854;174.870;2022-11-18T15:53:40;99842.00;;;16.80
19644;BMP180;9970;-36.854;174.870;2022-11-18T15:58:56;99837.00;;;16.80
19644;BMP180;9970;-36.854;174.870;2022-11-18T16:01:31;99847.00;;;16.80
19644;BMP180;9970;-36.854;174.870;2022-11-18T16:04:06;99844.00;;;16.80
19644;BMP180;9970;-36.854;174.870;2022-11-18T16:06:38;99850.00;;;16.80